Terminal Aerodrome Forecast
Issued by NWS

Home | Current Version | Previous Version | Graphics & Text | Print | Product List | Glossary On
Versions: 1 2 3 4 5 6 7 8 9 10 11 12 13 14 15 16 17 18 19 20 21
000
FTUS43 KGRB 231736
TAFATW
TAF
KATW 231736Z 2318/2418 03008KT P6SM VCSH BKN014 OVC026
      TEMPO 2319/2323 6SM -SHRA OVC012
     FM240200 03010G16KT P6SM -SHRA OVC015
     FM240600 03010G16KT P6SM -SHRA OVC007
     FM241600 04012G18KT P6SM -SHRA OVC013=

USA.gov is the U.S. government's official web portal to all federal, state and local government web resources and services.